sensor_id;sensor_type;location;lat;lon;timestamp;pressure;altitude;pressure_sealevel;temperature;humidity
13235;BME280;6683;48.506;9.050;2024-03-07T00:01:37;98546.25;;;9.75;74.83
13235;BME280;6683;48.506;9.050;2024-03-07T00:04:39;98540.31;;;9.73;75.11
13235;BME280;6683;48.506;9.050;2024-03-07T00:07:42;98549.56;;;9.68;75.11
13235;BME280;6683;48.506;9.050;2024-03-07T00:10:45;98552.56;;;9.65;74.93
13235;BME280;6683;48.506;9.050;2024-03-07T00:13:47;98545.19;;;9.61;74.89
13235;BME280;6683;48.506;9.050;2024-03-07T00:16:51;98551.44;;;9.60;75.26
13235;BME280;6683;48.506;9.050;2024-03-07T00:19:54;98549.78;;;9.59;75.48
13235;BME280;6683;48.506;9.050;2024-03-07T00:22:57;98554.06;;;9.60;75.24
13235;BME280;6683;48.506;9.050;2024-03-07T00:25:59;98549.63;;;9.60;75.04
13235;BME280;6683;48.506;9.050;2024-03-07T00:29:02;98547.81;;;9.61;75.15
13235;BME280;6683;48.506;9.050;2024-03-07T00:32:06;98555.72;;;9.61;75.39
13235;BME280;6683;48.506;9.050;2024-03-07T00:35:08;98555.22;;;9.57;75.01
13235;BME280;6683;48.506;9.050;2024-03-07T00:38:11;98545.88;;;9.55;74.98
13235;BME280;6683;48.506;9.050;2024-03-07T00:41:13;98548.00;;;9.51;75.07
13235;BME280;6683;48.506;9.050;2024-03-07T00:44:16;98545.53;;;9.50;75.40
13235;BME280;6683;48.506;9.050;2024-03-07T00:47:20;98538.66;;;9.49;75.13
13235;BME280;6683;48.506;9.050;2024-03-07T00:50:22;98538.00;;;9.47;74.97
13235;BME280;6683;48.506;9.050;2024-03-07T00:53:25;98541.94;;;9.43;75.04
13235;BME280;6683;48.506;9.050;2024-03-07T00:56:27;98543.91;;;9.41;74.97
13235;BME280;6683;48.506;9.050;2024-03-07T00:59:30;98541.00;;;9.36;75.13
13235;BME280;6683;48.506;9.050;2024-03-07T01:02:34;98544.97;;;9.32;75.25
13235;BME280;6683;48.506;9.050;2024-03-07T01:05:36;98536.56;;;9.28;74.79
13235;BME280;6683;48.506;9.050;2024-03-07T01:08:39;98546.78;;;9.23;74.93
13235;BME280;6683;48.506;9.050;2024-03-07T01:11:43;98540.41;;;9.18;75.15
13235;BME280;6683;48.506;9.050;2024-03-07T01:14:45;98541.88;;;9.12;74.80
13235;BME280;6683;48.506;9.050;2024-03-07T01:17:49;98536.63;;;9.04;74.83
13235;BME280;6683;48.506;9.050;2024-03-07T01:20:51;98529.41;;;8.98;74.66
13235;BME280;6683;48.506;9.050;2024-03-07T01:23:53;98530.91;;;8.93;74.82
13235;BME280;6683;48.506;9.050;2024-03-07T01:26:56;98532.38;;;8.87;74.93
13235;BME280;6683;48.506;9.050;2024-03-07T01:29:58;98527.78;;;8.81;75.00
13235;BME280;6683;48.506;9.050;2024-03-07T01:33:04;98523.84;;;8.77;75.08
13235;BME280;6683;48.506;9.050;2024-03-07T01:36:06;98529.47;;;8.74;74.81
13235;BME280;6683;48.506;9.050;2024-03-07T01:39:08;98528.00;;;8.71;75.10
13235;BME280;6683;48.506;9.050;2024-03-07T01:42:11;98530.09;;;8.68;74.92
13235;BME280;6683;48.506;9.050;2024-03-07T01:45:14;98514.84;;;8.63;75.26
13235;BME280;6683;48.506;9.050;2024-03-07T01:48:25;98518.81;;;8.59;75.08
13235;BME280;6683;48.506;9.050;2024-03-07T01:51:29;98512.72;;;8.59;75.02
13235;BME280;6683;48.506;9.050;2024-03-07T01:54:32;98506.13;;;8.55;75.15
13235;BME280;6683;48.506;9.050;2024-03-07T01:57:35;98507.09;;;8.54;75.04
13235;BME280;6683;48.506;9.050;2024-03-07T02:00:37;98504.81;;;8.51;75.03
13235;BME280;6683;48.506;9.050;2024-03-07T02:03:41;98499.06;;;8.47;74.92
13235;BME280;6683;48.506;9.050;2024-03-07T02:06:43;98500.22;;;8.45;75.09
13235;BME280;6683;48.506;9.050;2024-03-07T02:09:46;98506.13;;;8.39;75.07
13235;BME280;6683;48.506;9.050;2024-03-07T02:12:48;98497.56;;;8.37;74.95
13235;BME280;6683;48.506;9.050;2024-03-07T02:15:51;98504.00;;;8.34;74.92
13235;BME280;6683;48.506;9.050;2024-03-07T02:18:54;98501.69;;;8.31;74.78
13235;BME280;6683;48.506;9.050;2024-03-07T02:21:58;98496.09;;;8.26;74.72
13235;BME280;6683;48.506;9.050;2024-03-07T02:25:01;98494.75;;;8.22;74.76
13235;BME280;6683;48.506;9.050;2024-03-07T02:28:04;98502.16;;;8.19;74.74
13235;BME280;6683;48.506;9.050;2024-03-07T02:31:06;98499.34;;;8.12;74.81
13235;BME280;6683;48.506;9.050;2024-03-07T02:34:09;98499.84;;;8.07;74.65
13235;BME280;6683;48.506;9.050;2024-03-07T02:37:12;98490.97;;;8.00;74.64
13235;BME280;6683;48.506;9.050;2024-03-07T02:40:15;98492.44;;;7.95;74.59
13235;BME280;6683;48.506;9.050;2024-03-07T02:43:17;98490.44;;;7.89;74.56
13235;BME280;6683;48.506;9.050;2024-03-07T02:46:20;98493.44;;;7.86;74.69
13235;BME280;6683;48.506;9.050;2024-03-07T02:49:22;98497.38;;;7.82;74.64
13235;BME280;6683;48.506;9.050;2024-03-07T02:52:25;98493.41;;;7.78;74.57
13235;BME280;6683;48.506;9.050;2024-03-07T02:55:27;98486.84;;;7.74;74.63
13235;BME280;6683;48.506;9.050;2024-03-07T02:58:30;98489.13;;;7.69;74.61
13235;BME280;6683;48.506;9.050;2024-03-07T03:01:32;98487.63;;;7.66;74.60
13235;BME280;6683;48.506;9.050;2024-03-07T03:04:34;98488.75;;;7.64;74.67
13235;BME280;6683;48.506;9.050;2024-03-07T03:07:37;98486.47;;;7.61;74.77
13235;BME280;6683;48.506;9.050;2024-03-07T03:10:40;98484.16;;;7.58;74.69
13235;BME280;6683;48.506;9.050;2024-03-07T03:13:42;98481.88;;;7.55;74.65
13235;BME280;6683;48.506;9.050;2024-03-07T03:16:44;98478.72;;;7.51;74.49
13235;BME280;6683;48.506;9.050;2024-03-07T03:19:47;98487.91;;;7.47;74.55
13235;BME280;6683;48.506;9.050;2024-03-07T03:22:53;98484.78;;;7.44;74.31
13235;BME280;6683;48.506;9.050;2024-03-07T03:25:55;98479.03;;;7.40;74.50
13235;BME280;6683;48.506;9.050;2024-03-07T03:28:57;98484.59;;;7.37;74.47
13235;BME280;6683;48.506;9.050;2024-03-07T03:31:59;98483.44;;;7.32;74.38
13235;BME280;6683;48.506;9.050;2024-03-07T03:35:02;98493.41;;;7.28;74.33
13235;BME280;6683;48.506;9.050;2024-03-07T03:38:06;98486.16;;;7.22;74.24
13235;BME280;6683;48.506;9.050;2024-03-07T03:41:08;98487.47;;;7.18;74.20
13235;BME280;6683;48.506;9.050;2024-03-07T03:44:11;98481.06;;;7.12;74.30
13235;BME280;6683;48.506;9.050;2024-03-07T03:47:13;98478.91;;;7.08;74.28
13235;BME280;6683;48.506;9.050;2024-03-07T03:50:15;98474.78;;;7.05;74.25
13235;BME280;6683;48.506;9.050;2024-03-07T03:53:20;98477.72;;;7.02;74.36
13235;BME280;6683;48.506;9.050;2024-03-07T03:56:22;98483.28;;;6.99;74.28
13235;BME280;6683;48.506;9.050;2024-03-07T03:59:25;98478.50;;;6.95;74.16
13235;BME280;6683;48.506;9.050;2024-03-07T04:02:28;98475.38;;;6.91;74.48
13235;BME280;6683;48.506;9.050;2024-03-07T04:05:31;98476.66;;;6.87;74.18
13235;BME280;6683;48.506;9.050;2024-03-07T04:08:34;98476.31;;;6.82;74.13
13235;BME280;6683;48.506;9.050;2024-03-07T04:11:37;98478.44;;;6.79;73.91
13235;BME280;6683;48.506;9.050;2024-03-07T04:14:40;98474.63;;;6.73;74.19
13235;BME280;6683;48.506;9.050;2024-03-07T04:17:43;98482.13;;;6.68;73.76
13235;BME280;6683;48.506;9.050;2024-03-07T04:20:47;98476.38;;;6.65;74.11
13235;BME280;6683;48.506;9.050;2024-03-07T04:23:50;98480.13;;;6.62;73.93
13235;BME280;6683;48.506;9.050;2024-03-07T04:26:52;98471.59;;;6.60;74.01
13235;BME280;6683;48.506;9.050;2024-03-07T04:29:54;98474.69;;;6.56;74.14
13235;BME280;6683;48.506;9.050;2024-03-07T04:32:57;98473.34;;;6.52;74.20
13235;BME280;6683;48.506;9.050;2024-03-07T04:35:59;98479.56;;;6.51;73.88
13235;BME280;6683;48.506;9.050;2024-03-07T04:39:04;98479.72;;;6.49;73.93
13235;BME280;6683;48.506;9.050;2024-03-07T04:42:08;98475.63;;;6.47;73.98
13235;BME280;6683;48.506;9.050;2024-03-07T04:45:11;98480.03;;;6.46;74.18
13235;BME280;6683;48.506;9.050;2024-03-07T04:48:14;98479.88;;;6.47;74.52
13235;BME280;6683;48.506;9.050;2024-03-07T04:51:17;98477.25;;;6.47;74.58
13235;BME280;6683;48.506;9.050;2024-03-07T04:54:21;98471.03;;;6.49;74.39
13235;BME280;6683;48.506;9.050;2024-03-07T04:57:24;98473.50;;;6.50;74.63
13235;BME280;6683;48.506;9.050;2024-03-07T05:00:27;98477.63;;;6.53;74.45
13235;BME280;6683;48.506;9.050;2024-03-07T05:03:31;98482.69;;;6.54;74.48
13235;BME280;6683;48.506;9.050;2024-03-07T05:06:34;98472.06;;;6.56;74.37
13235;BME280;6683;48.506;9.050;2024-03-07T05:09:38;98473.56;;;6.58;74.69
13235;BME280;6683;48.506;9.050;2024-03-07T05:12:40;98479.47;;;6.60;74.78
13235;BME280;6683;48.506;9.050;2024-03-07T05:15:42;98475.03;;;6.61;74.65
13235;BME280;6683;48.506;9.050;2024-03-07T05:18:45;98468.81;;;6.62;74.42
13235;BME280;6683;48.506;9.050;2024-03-07T05:21:48;98478.34;;;6.63;74.57
13235;BME280;6683;48.506;9.050;2024-03-07T05:24:52;98475.72;;;6.63;74.29
13235;BME280;6683;48.506;9.050;2024-03-07T05:27:58;98466.34;;;6.60;74.22
13235;BME280;6683;48.506;9.050;2024-03-07T05:31:00;98469.13;;;6.59;74.26
13235;BME280;6683;48.506;9.050;2024-03-07T05:34:03;98471.88;;;6.57;74.38
13235;BME280;6683;48.506;9.050;2024-03-07T05:37:09;98466.81;;;6.56;74.40
13235;BME280;6683;48.506;9.050;2024-03-07T05:40:13;98475.81;;;6.53;74.13
13235;BME280;6683;48.506;9.050;2024-03-07T05:43:15;98477.63;;;6.53;74.34
13235;BME280;6683;48.506;9.050;2024-03-07T05:46:18;98470.03;;;6.50;74.39
13235;BME280;6683;48.506;9.050;2024-03-07T05:49:20;98478.06;;;6.48;74.57
13235;BME280;6683;48.506;9.050;2024-03-07T05:52:22;98477.09;;;6.49;74.72
13235;BME280;6683;48.506;9.050;2024-03-07T05:55:26;98470.22;;;6.48;74.39
13235;BME280;6683;48.506;9.050;2024-03-07T05:58:28;98468.41;;;6.49;74.38
13235;BME280;6683;48.506;9.050;2024-03-07T06:01:30;98463.31;;;6.47;74.72
13235;BME280;6683;48.506;9.050;2024-03-07T06:04:35;98464.97;;;6.48;74.34
13235;BME280;6683;48.506;9.050;2024-03-07T06:07:37;98465.78;;;6.49;74.35
13235;BME280;6683;48.506;9.050;2024-03-07T06:10:41;98465.94;;;6.47;74.33
13235;BME280;6683;48.506;9.050;2024-03-07T06:13:43;98464.13;;;6.47;74.80
13235;BME280;6683;48.506;9.050;2024-03-07T06:16:46;98472.16;;;6.46;74.22
13235;BME280;6683;48.506;9.050;2024-03-07T06:19:49;98475.91;;;6.43;74.09
13235;BME280;6683;48.506;9.050;2024-03-07T06:22:51;98472.47;;;6.43;74.55
13235;BME280;6683;48.506;9.050;2024-03-07T06:25:55;98459.66;;;6.40;74.27
13235;BME280;6683;48.506;9.050;2024-03-07T06:28:59;98468.50;;;6.39;74.46
13235;BME280;6683;48.506;9.050;2024-03-07T06:32:02;98473.91;;;6.37;74.29
13235;BME280;6683;48.506;9.050;2024-03-07T06:35:05;98460.97;;;6.36;74.67
13235;BME280;6683;48.506;9.050;2024-03-07T06:38:08;98465.22;;;6.37;74.53
13235;BME280;6683;48.506;9.050;2024-03-07T06:41:11;98468.66;;;6.37;74.16
13235;BME280;6683;48.506;9.050;2024-03-07T06:44:14;98460.78;;;6.37;74.32
13235;BME280;6683;48.506;9.050;2024-03-07T06:47:18;98458.19;;;6.37;74.48
13235;BME280;6683;48.506;9.050;2024-03-07T06:50:20;98471.28;;;6.37;74.24
13235;BME280;6683;48.506;9.050;2024-03-07T06:53:22;98474.72;;;6.38;74.75
13235;BME280;6683;48.506;9.050;2024-03-07T06:56:28;98468.34;;;6.40;74.60
13235;BME280;6683;48.506;9.050;2024-03-07T06:59:31;98466.53;;;6.41;74.26
13235;BME280;6683;48.506;9.050;2024-03-07T07:02:33;98480.66;;;6.40;74.02
13235;BME280;6683;48.506;9.050;2024-03-07T07:05:36;98474.56;;;6.39;74.36
13235;BME280;6683;48.506;9.050;2024-03-07T07:08:39;98472.25;;;6.36;73.80
13235;BME280;6683;48.506;9.050;2024-03-07T07:11:42;98480.44;;;6.33;73.80
13235;BME280;6683;48.506;9.050;2024-03-07T07:14:46;98475.47;;;6.30;73.99
13235;BME280;6683;48.506;9.050;2024-03-07T07:17:49;98478.44;;;6.27;74.32
13235;BME280;6683;48.506;9.050;2024-03-07T07:20:51;98480.38;;;6.25;74.00
13235;BME280;6683;48.506;9.050;2024-03-07T07:23:53;98469.06;;;6.25;74.14
13235;BME280;6683;48.506;9.050;2024-03-07T07:26:57;98462.81;;;6.26;74.45
13235;BME280;6683;48.506;9.050;2024-03-07T07:29:59;98460.38;;;6.24;74.35
13235;BME280;6683;48.506;9.050;2024-03-07T07:33:01;98464.31;;;6.28;74.52
13235;BME280;6683;48.506;9.050;2024-03-07T07:36:04;98473.84;;;6.29;74.12
13235;BME280;6683;48.506;9.050;2024-03-07T07:39:07;98473.84;;;6.29;74.41
13235;BME280;6683;48.506;9.050;2024-03-07T07:42:18;98471.22;;;6.29;74.06
13235;BME280;6683;48.506;9.050;2024-03-07T07:45:22;98464.50;;;6.27;74.11
13235;BME280;6683;48.506;9.050;2024-03-07T07:48:24;98460.88;;;6.28;74.60
13235;BME280;6683;48.506;9.050;2024-03-07T07:51:27;98462.53;;;6.29;74.16
13235;BME280;6683;48.506;9.050;2024-03-07T07:54:29;98458.78;;;6.31;74.60
13235;BME280;6683;48.506;9.050;2024-03-07T07:57:32;98456.16;;;6.31;74.51
13235;BME280;6683;48.506;9.050;2024-03-07T08:00:35;98457.00;;;6.32;74.44
13235;BME280;6683;48.506;9.050;2024-03-07T08:03:37;98456.84;;;6.33;74.57
13235;BME280;6683;48.506;9.050;2024-03-07T08:06:41;98455.72;;;6.36;74.45
13235;BME280;6683;48.506;9.050;2024-03-07T08:09:44;98458.47;;;6.34;74.22
13235;BME280;6683;48.506;9.050;2024-03-07T08:12:47;98452.72;;;6.31;73.96
13235;BME280;6683;48.506;9.050;2024-03-07T08:15:49;98453.56;;;6.31;74.62
13235;BME280;6683;48.506;9.050;2024-03-07T08:18:52;98453.56;;;6.31;74.37
13235;BME280;6683;48.506;9.050;2024-03-07T08:21:57;98465.53;;;6.34;74.55
13235;BME280;6683;48.506;9.050;2024-03-07T08:25:00;98450.94;;;6.31;74.50
13235;BME280;6683;48.506;9.050;2024-03-07T08:28:04;98457.81;;;6.32;74.68
13235;BME280;6683;48.506;9.050;2024-03-07T08:31:06;98448.97;;;6.33;74.33
13235;BME280;6683;48.506;9.050;2024-03-07T08:34:10;98449.66;;;6.35;74.50
13235;BME280;6683;48.506;9.050;2024-03-07T08:37:12;98452.78;;;6.39;74.33
13235;BME280;6683;48.506;9.050;2024-03-07T08:40:14;98445.56;;;6.41;74.76
13235;BME280;6683;48.506;9.050;2024-03-07T08:43:21;98447.91;;;6.44;74.95
13235;BME280;6683;48.506;9.050;2024-03-07T08:46:24;98450.19;;;6.47;74.71
13235;BME280;6683;48.506;9.050;2024-03-07T08:49:28;98448.09;;;6.51;74.80
13235;BME280;6683;48.506;9.050;2024-03-07T08:52:30;98446.94;;;6.53;74.77
13235;BME280;6683;48.506;9.050;2024-03-07T08:55:33;98445.16;;;6.54;74.46
13235;BME280;6683;48.506;9.050;2024-03-07T08:58:38;98439.09;;;6.53;74.70
13235;BME280;6683;48.506;9.050;2024-03-07T09:01:40;98437.13;;;6.55;74.99
13235;BME280;6683;48.506;9.050;2024-03-07T09:04:44;98437.78;;;6.57;74.89
13235;BME280;6683;48.506;9.050;2024-03-07T09:07:47;98434.88;;;6.60;74.74
13235;BME280;6683;48.506;9.050;2024-03-07T09:10:49;98435.38;;;6.64;74.76
13235;BME280;6683;48.506;9.050;2024-03-07T09:13:57;98436.72;;;6.68;74.65
13235;BME280;6683;48.506;9.050;2024-03-07T09:16:59;98432.97;;;6.70;74.61
13235;BME280;6683;48.506;9.050;2024-03-07T09:20:01;98428.53;;;6.71;74.79
13235;BME280;6683;48.506;9.050;2024-03-07T09:23:04;98424.78;;;6.73;75.01
13235;BME280;6683;48.506;9.050;2024-03-07T09:26:07;98428.75;;;6.77;75.24
13235;BME280;6683;48.506;9.050;2024-03-07T09:29:10;98425.78;;;6.80;74.69
13235;BME280;6683;48.506;9.050;2024-03-07T09:32:13;98421.22;;;6.82;74.83
13235;BME280;6683;48.506;9.050;2024-03-07T09:35:15;98422.19;;;6.81;74.78
13235;BME280;6683;48.506;9.050;2024-03-07T09:38:18;98422.19;;;6.81;74.74
13235;BME280;6683;48.506;9.050;2024-03-07T09:41:20;98429.25;;;6.81;74.69
13235;BME280;6683;48.506;9.050;2024-03-07T09:44:28;98421.53;;;6.79;74.69
13235;BME280;6683;48.506;9.050;2024-03-07T09:47:31;98424.81;;;6.81;75.01
13235;BME280;6683;48.506;9.050;2024-03-07T09:50:34;98417.44;;;6.85;74.83
13235;BME280;6683;48.506;9.050;2024-03-07T09:53:37;98417.00;;;6.89;75.23
13235;BME280;6683;48.506;9.050;2024-03-07T09:56:42;98409.31;;;6.96;75.41
13235;BME280;6683;48.506;9.050;2024-03-07T09:59:46;98408.97;;;6.99;75.00
13235;BME280;6683;48.506;9.050;2024-03-07T10:02:54;98415.25;;;7.06;75.20
13235;BME280;6683;48.506;9.050;2024-03-07T10:05:57;98412.63;;;7.14;75.25
13235;BME280;6683;48.506;9.050;2024-03-07T10:09:02;98405.13;;;7.19;75.11
13235;BME280;6683;48.506;9.050;2024-03-07T10:12:05;98403.00;;;7.22;75.04
13235;BME280;6683;48.506;9.050;2024-03-07T10:15:12;98412.00;;;7.28;75.23
13235;BME280;6683;48.506;9.050;2024-03-07T10:18:15;98405.50;;;7.32;75.10
13235;BME280;6683;48.506;9.050;2024-03-07T10:21:20;98404.19;;;7.36;74.80
13235;BME280;6683;48.506;9.050;2024-03-07T10:24:25;98406.31;;;7.41;75.06
13235;BME280;6683;48.506;9.050;2024-03-07T10:27:28;98410.28;;;7.45;75.08
13235;BME280;6683;48.506;9.050;2024-03-07T10:30:40;98402.06;;;7.48;75.30
13235;BME280;6683;48.506;9.050;2024-03-07T10:33:42;98402.41;;;7.53;75.25
13235;BME280;6683;48.506;9.050;2024-03-07T10:36:45;98403.56;;;7.58;75.35
13235;BME280;6683;48.506;9.050;2024-03-07T10:39:47;98402.06;;;7.64;75.46
13235;BME280;6683;48.506;9.050;2024-03-07T10:42:54;98399.63;;;7.70;75.38
13235;BME280;6683;48.506;9.050;2024-03-07T10:46:02;98400.78;;;7.76;75.41
13235;BME280;6683;48.506;9.050;2024-03-07T10:49:09;98390.28;;;7.84;75.69
13235;BME280;6683;48.506;9.050;2024-03-07T10:52:28;98387.66;;;7.92;75.51
13235;BME280;6683;48.506;9.050;2024-03-07T10:55:34;98392.25;;;7.98;75.73
13235;BME280;6683;48.506;9.050;2024-03-07T10:58:50;98384.34;;;8.06;75.65
13235;BME280;6683;48.506;9.050;2024-03-07T11:02:05;98379.41;;;8.11;75.60
13235;BME280;6683;48.506;9.050;2024-03-07T11:05:15;98373.00;;;8.22;75.53
13235;BME280;6683;48.506;9.050;2024-03-07T11:08:17;98376.63;;;8.29;75.73
13235;BME280;6683;48.506;9.050;2024-03-07T11:11:21;98371.50;;;8.35;75.44
13235;BME280;6683;48.506;9.050;2024-03-07T11:14:24;98368.22;;;8.41;75.29
13235;BME280;6683;48.506;9.050;2024-03-07T11:17:28;98373.97;;;8.45;75.38
13235;BME280;6683;48.506;9.050;2024-03-07T11:20:35;98366.56;;;8.48;75.44
13235;BME280;6683;48.506;9.050;2024-03-07T11:23:45;98360.94;;;8.51;75.40
13235;BME280;6683;48.506;9.050;2024-03-07T11:26:47;98362.41;;;8.54;74.95
13235;BME280;6683;48.506;9.050;2024-03-07T11:29:50;98356.97;;;8.55;74.97
13235;BME280;6683;48.506;9.050;2024-03-07T11:32:55;98352.38;;;8.57;75.38
13235;BME280;6683;48.506;9.050;2024-03-07T11:35:59;98346.78;;;8.60;75.05
13235;BME280;6683;48.506;9.050;2024-03-07T11:39:02;98344.78;;;8.62;75.06
13235;BME280;6683;48.506;9.050;2024-03-07T11:42:25;98338.19;;;8.66;75.01
13235;BME280;6683;48.506;9.050;2024-03-07T11:45:29;98341.28;;;8.70;75.19
13235;BME280;6683;48.506;9.050;2024-03-07T11:48:35;98336.53;;;8.73;75.33
13235;BME280;6683;48.506;9.050;2024-03-07T11:51:37;98327.47;;;8.76;75.22
13235;BME280;6683;48.506;9.050;2024-03-07T11:54:40;98334.19;;;8.78;75.29
13235;BME280;6683;48.506;9.050;2024-03-07T11:57:47;98323.34;;;8.81;74.89
13235;BME280;6683;48.506;9.050;2024-03-07T12:00:50;98325.78;;;8.83;75.03
13235;BME280;6683;48.506;9.050;2024-03-07T12:03:54;98321.53;;;8.82;74.92
13235;BME280;6683;48.506;9.050;2024-03-07T12:06:57;98318.72;;;8.83;75.08
13235;BME280;6683;48.506;9.050;2024-03-07T12:10:02;98307.81;;;8.86;75.29
13235;BME280;6683;48.506;9.050;2024-03-07T12:13:07;98298.06;;;8.95;75.43
13235;BME280;6683;48.506;9.050;2024-03-07T12:16:12;98298.34;;;9.08;75.78
13235;BME280;6683;48.506;9.050;2024-03-07T12:19:15;98297.34;;;9.32;76.49
13235;BME280;6683;48.506;9.050;2024-03-07T12:22:19;98293.72;;;9.70;76.42
13235;BME280;6683;48.506;9.050;2024-03-07T12:25:24;98293.28;;;10.18;76.28
13235;BME280;6683;48.506;9.050;2024-03-07T12:28:26;98287.44;;;10.67;75.63
13235;BME280;6683;48.506;9.050;2024-03-07T12:31:29;98285.13;;;10.93;74.71
13235;BME280;6683;48.506;9.050;2024-03-07T12:34:34;98277.84;;;10.95;74.08
13235;BME280;6683;48.506;9.050;2024-03-07T12:37:41;98279.94;;;10.85;73.82
13235;BME280;6683;48.506;9.050;2024-03-07T12:40:44;98287.53;;;10.73;73.77
13235;BME280;6683;48.506;9.050;2024-03-07T12:43:47;98277.06;;;10.65;74.02
13235;BME280;6683;48.506;9.050;2024-03-07T12:46:51;98274.44;;;10.65;74.35
13235;BME280;6683;48.506;9.050;2024-03-07T12:49:55;98276.25;;;10.65;74.81
13235;BME280;6683;48.506;9.050;2024-03-07T12:52:59;98275.91;;;10.68;74.37
13235;BME280;6683;48.506;9.050;2024-03-07T12:56:06;98270.63;;;10.68;74.28
13235;BME280;6683;48.506;9.050;2024-03-07T12:59:09;98278.53;;;10.68;74.58
13235;BME280;6683;48.506;9.050;2024-03-07T13:02:12;98267.97;;;10.68;74.39
13235;BME280;6683;48.506;9.050;2024-03-07T13:05:15;98271.59;;;10.67;74.26
13235;BME280;6683;48.506;9.050;2024-03-07T13:08:22;98270.34;;;10.63;74.15
13235;BME280;6683;48.506;9.050;2024-03-07T13:11:27;98265.06;;;10.63;74.48
13235;BME280;6683;48.506;9.050;2024-03-07T13:14:32;98266.09;;;10.62;73.92
13235;BME280;6683;48.506;9.050;2024-03-07T13:17:35;98263.44;;;10.62;74.17
13235;BME280;6683;48.506;9.050;2024-03-07T13:20:38;98262.63;;;10.61;74.42
13235;BME280;6683;48.506;9.050;2024-03-07T13:23:44;98258.97;;;10.62;74.10
13235;BME280;6683;48.506;9.050;2024-03-07T13:26:47;98266.09;;;10.62;74.29
13235;BME280;6683;48.506;9.050;2024-03-07T13:29:50;98256.50;;;10.61;73.99
13235;BME280;6683;48.506;9.050;2024-03-07T13:32:53;98256.06;;;10.57;73.76
13235;BME280;6683;48.506;9.050;2024-03-07T13:35:57;98257.06;;;10.56;73.72
13235;BME280;6683;48.506;9.050;2024-03-07T13:39:01;98255.25;;;10.57;73.98
13235;BME280;6683;48.506;9.050;2024-03-07T13:42:04;98258.06;;;10.55;74.02
13235;BME280;6683;48.506;9.050;2024-03-07T13:45:08;98255.25;;;10.57;74.35
13235;BME280;6683;48.506;9.050;2024-03-07T13:48:14;98249.97;;;10.57;74.33
13235;BME280;6683;48.506;9.050;2024-03-07T13:51:19;98255.53;;;10.62;74.39
13235;BME280;6683;48.506;9.050;2024-03-07T13:54:21;98245.41;;;10.65;74.26
13235;BME280;6683;48.506;9.050;2024-03-07T13:57:40;98244.84;;;10.70;74.69
13235;BME280;6683;48.506;9.050;2024-03-07T14:00:52;98240.28;;;10.78;74.84
13235;BME280;6683;48.506;9.050;2024-03-07T14:08:19;98239.97;;;10.88;74.21
13235;BME280;6683;48.506;9.050;2024-03-07T14:16:26;98232.41;;;10.85;74.59
13235;BME280;6683;48.506;9.050;2024-03-07T14:23:54;98231.06;;;10.89;74.95
13235;BME280;6683;48.506;9.050;2024-03-07T14:27:22;98223.94;;;10.89;74.34
13235;BME280;6683;48.506;9.050;2024-03-07T14:30:39;98220.50;;;10.89;74.53
13235;BME280;6683;48.506;9.050;2024-03-07T14:34:02;98218.84;;;10.88;74.59
13235;BME280;6683;48.506;9.050;2024-03-07T14:37:19;98221.69;;;10.86;74.10
13235;BME280;6683;48.506;9.050;2024-03-07T14:40:25;98219.19;;;10.85;73.89
13235;BME280;6683;48.506;9.050;2024-03-07T14:43:28;98219.03;;;10.86;74.33
13235;BME280;6683;48.506;9.050;2024-03-07T14:46:31;98217.84;;;10.89;74.07
13235;BME280;6683;48.506;9.050;2024-03-07T14:49:34;98219.47;;;10.90;74.37
13235;BME280;6683;48.506;9.050;2024-03-07T14:52:37;98209.72;;;10.90;73.73
13235;BME280;6683;48.506;9.050;2024-03-07T14:55:42;98216.19;;;10.88;73.70
13235;BME280;6683;48.506;9.050;2024-03-07T14:58:44;98204.00;;;10.87;73.82
13235;BME280;6683;48.506;9.050;2024-03-07T15:01:47;98206.28;;;10.90;74.00
13235;BME280;6683;48.506;9.050;2024-03-07T15:04:49;98200.63;;;10.93;74.20
13235;BME280;6683;48.506;9.050;2024-03-07T15:07:52;98201.25;;;10.95;73.94
13235;BME280;6683;48.506;9.050;2024-03-07T15:11:11;98199.25;;;10.97;74.43
13235;BME280;6683;48.506;9.050;2024-03-07T15:14:18;98192.94;;;10.98;73.85
13235;BME280;6683;48.506;9.050;2024-03-07T15:17:22;98202.50;;;10.99;74.06
13235;BME280;6683;48.506;9.050;2024-03-07T15:20:26;98198.84;;;11.00;73.70
13235;BME280;6683;48.506;9.050;2024-03-07T15:23:30;98192.75;;;10.99;73.83
13235;BME280;6683;48.506;9.050;2024-03-07T15:26:38;98189.31;;;10.99;74.00
13235;BME280;6683;48.506;9.050;2024-03-07T15:29:40;98195.22;;;11.01;73.79
13235;BME280;6683;48.506;9.050;2024-03-07T15:32:43;98187.44;;;10.99;73.44
13235;BME280;6683;48.506;9.050;2024-03-07T15:35:46;98190.28;;;10.98;73.51
13235;BME280;6683;48.506;9.050;2024-03-07T15:38:49;98190.28;;;10.98;73.62
13235;BME280;6683;48.506;9.050;2024-03-07T15:41:52;98193.97;;;10.97;73.48
13235;BME280;6683;48.506;9.050;2024-03-07T15:44:55;98188.69;;;10.97;73.69
13235;BME280;6683;48.506;9.050;2024-03-07T15:47:58;98194.13;;;10.95;73.55
13235;BME280;6683;48.506;9.050;2024-03-07T15:51:05;98186.78;;;10.91;73.23
13235;BME280;6683;48.506;9.050;2024-03-07T15:54:12;98185.34;;;10.88;73.29
13235;BME280;6683;48.506;9.050;2024-03-07T15:57:20;98183.88;;;10.86;72.97
13235;BME280;6683;48.506;9.050;2024-03-07T16:00:24;98179.78;;;10.83;72.97
13235;BME280;6683;48.506;9.050;2024-03-07T16:03:26;98178.72;;;10.78;73.06
13235;BME280;6683;48.506;9.050;2024-03-07T16:06:29;98188.03;;;10.74;73.28
13235;BME280;6683;48.506;9.050;2024-03-07T16:09:32;98170.75;;;10.71;73.26
13235;BME280;6683;48.506;9.050;2024-03-07T16:12:35;98183.31;;;10.69;73.23
13235;BME280;6683;48.506;9.050;2024-03-07T16:15:39;98181.84;;;10.67;73.32
13235;BME280;6683;48.506;9.050;2024-03-07T16:18:41;98176.78;;;10.65;73.15
13235;BME280;6683;48.506;9.050;2024-03-07T16:21:45;98180.78;;;10.61;73.12
13235;BME280;6683;48.506;9.050;2024-03-07T16:24:50;98169.59;;;10.59;72.91
13235;BME280;6683;48.506;9.050;2024-03-07T16:27:54;98160.44;;;10.55;73.08
13235;BME280;6683;48.506;9.050;2024-03-07T16:30:56;98165.88;;;10.54;73.09
13235;BME280;6683;48.506;9.050;2024-03-07T16:34:02;98162.78;;;10.50;73.19
13235;BME280;6683;48.506;9.050;2024-03-07T16:37:04;98161.19;;;10.49;73.10
13235;BME280;6683;48.506;9.050;2024-03-07T16:40:10;98160.72;;;10.45;73.02
13235;BME280;6683;48.506;9.050;2024-03-07T16:43:14;98160.72;;;10.45;73.26
13235;BME280;6683;48.506;9.050;2024-03-07T16:46:16;98167.00;;;10.44;73.21
13235;BME280;6683;48.506;9.050;2024-03-07T16:49:19;98168.81;;;10.44;73.43
13235;BME280;6683;48.506;9.050;2024-03-07T16:52:22;98166.38;;;10.42;73.23